sensor_id;sensor_type;location;lat;lon;timestamp;pressure;altitude;pressure_sealevel;temperature;humidity
39341;BME280;25059;52.132;21.062;2023-02-28T00:00:45;101840.44;;;-4.49;100.00
39341;BME280;25059;52.132;21.062;2023-02-28T00:03:30;101854.03;;;-4.51;100.00
39341;BME280;25059;52.132;21.062;2023-02-28T00:06:19;101846.25;;;-4.53;100.00
39341;BME280;25059;52.132;21.062;2023-02-28T00:09:05;101851.06;;;-4.41;100.00
39341;BME280;25059;52.132;21.062;2023-02-28T00:11:49;101839.50;;;-4.51;100.00
39341;BME280;25059;52.132;21.062;2023-02-28T00:14:34;101864.19;;;-4.35;100.00
39341;BME280;25059;52.132;21.062;2023-02-28T00:17:18;101844.50;;;-4.54;100.00
39341;BME280;25059;52.132;21.062;2023-02-28T00:20:06;101868.44;;;-4.36;100.00
39341;BME280;25059;52.132;21.062;2023-02-28T00:22:53;101871.56;;;-4.24;100.00
39341;BME280;25059;52.132;21.062;2023-02-28T00:25:38;101854.88;;;-4.33;100.00
39341;BME280;25059;52.132;21.062;2023-02-28T00:28:23;101850.19;;;-4.42;100.00
39341;BME280;25059;52.132;21.062;2023-02-28T00:31:07;101867.75;;;-4.32;100.00
39341;BME280;25059;52.132;21.062;2023-02-28T00:33:52;101862.28;;;-4.39;100.00
39341;BME280;25059;52.132;21.062;2023-02-28T00:36:37;101878.34;;;-4.43;100.00
39341;BME280;25059;52.132;21.062;2023-02-28T00:39:22;101869.41;;;-4.51;100.00
39341;BME280;25059;52.132;21.062;2023-02-28T00:42:07;101879.19;;;-4.62;100.00
39341;BME280;25059;52.132;21.062;2023-02-28T00:44:52;101877.28;;;-4.66;100.00
39341;BME280;25059;52.132;21.062;2023-02-28T00:47:36;101870.59;;;-4.63;100.00
39341;BME280;25059;52.132;21.062;2023-02-28T00:50:21;101875.38;;;-4.70;100.00
39341;BME280;25059;52.132;21.062;2023-02-28T00:53:05;101871.50;;;-4.80;100.00
39341;BME280;25059;52.132;21.062;2023-02-28T00:55:50;101849.31;;;-4.97;100.00
39341;BME280;25059;52.132;21.062;2023-02-28T00:58:35;101847.03;;;-4.91;100.00
39341;BME280;25059;52.132;21.062;2023-02-28T01:01:20;101878.75;;;-4.71;100.00
39341;BME280;25059;52.132;21.062;2023-02-28T01:04:04;101868.19;;;-4.77;100.00
39341;BME280;25059;52.132;21.062;2023-02-28T01:06:49;101864.41;;;-4.85;100.00
39341;BME280;25059;52.132;21.062;2023-02-28T01:09:34;101867.31;;;-4.78;100.00
39341;BME280;25059;52.132;21.062;2023-02-28T01:12:18;101866.50;;;-4.77;100.00
39341;BME280;25059;52.132;21.062;2023-02-28T01:15:04;101874.34;;;-4.74;100.00
39341;BME280;25059;52.132;21.062;2023-02-28T01:17:48;101853.84;;;-4.92;100.00
39341;BME280;25059;52.132;21.062;2023-02-28T01:20:36;101848.78;;;-5.08;100.00
39341;BME280;25059;52.132;21.062;2023-02-28T01:23:22;101869.53;;;-5.03;100.00
39341;BME280;25059;52.132;21.062;2023-02-28T01:26:10;101856.75;;;-5.19;100.00
39341;BME280;25059;52.132;21.062;2023-02-28T01:28:55;101864.91;;;-5.10;100.00
39341;BME280;25059;52.132;21.062;2023-02-28T01:31:40;101869.22;;;-5.09;100.00
39341;BME280;25059;52.132;21.062;2023-02-28T01:34:25;101869.72;;;-5.16;100.00
39341;BME280;25059;52.132;21.062;2023-02-28T01:37:10;101872.94;;;-5.21;100.00
39341;BME280;25059;52.132;21.062;2023-02-28T01:39:54;101867.75;;;-5.22;100.00
39341;BME280;25059;52.132;21.062;2023-02-28T01:42:39;101867.81;;;-5.21;100.00
39341;BME280;25059;52.132;21.062;2023-02-28T01:45:29;101869.56;;;-5.19;100.00
39341;BME280;25059;52.132;21.062;2023-02-28T01:48:14;101873.38;;;-5.29;100.00
39341;BME280;25059;52.132;21.062;2023-02-28T01:51:04;101881.44;;;-5.22;100.00
39341;BME280;25059;52.132;21.062;2023-02-28T01:53:56;101882.59;;;-5.33;100.00
39341;BME280;25059;52.132;21.062;2023-02-28T01:56:49;101881.47;;;-5.38;100.00
39341;BME280;25059;52.132;21.062;2023-02-28T01:59:43;101878.19;;;-5.35;100.00
39341;BME280;25059;52.132;21.062;2023-02-28T02:02:33;101865.97;;;-5.41;100.00
39341;BME280;25059;52.132;21.062;2023-02-28T02:05:23;101858.28;;;-5.41;100.00
39341;BME280;25059;52.132;21.062;2023-02-28T02:08:12;101869.94;;;-5.30;100.00
39341;BME280;25059;52.132;21.062;2023-02-28T02:10:59;101871.16;;;-5.39;100.00
39341;BME280;25059;52.132;21.062;2023-02-28T02:26:15;101877.97;;;-5.40;100.00
39341;BME280;25059;52.132;21.062;2023-02-28T02:38:35;101882.50;;;-5.34;100.00
39341;BME280;25059;52.132;21.062;2023-02-28T02:41:28;101874.44;;;-5.42;100.00
39341;BME280;25059;52.132;21.062;2023-02-28T02:44:24;101881.97;;;-5.45;100.00
39341;BME280;25059;52.132;21.062;2023-02-28T02:47:14;101879.72;;;-5.39;100.00
39341;BME280;25059;52.132;21.062;2023-02-28T02:50:03;101870.13;;;-5.43;100.00
39341;BME280;25059;52.132;21.062;2023-02-28T02:52:53;101881.00;;;-5.31;100.00
39341;BME280;25059;52.132;21.062;2023-02-28T02:55:43;101887.84;;;-5.47;100.00
39341;BME280;25059;52.132;21.062;2023-02-28T02:58:34;101881.56;;;-5.36;100.00
39341;BME280;25059;52.132;21.062;2023-02-28T03:01:22;101859.88;;;-5.43;100.00
39341;BME280;25059;52.132;21.062;2023-02-28T03:04:17;101896.81;;;-5.22;100.00
39341;BME280;25059;52.132;21.062;2023-02-28T03:07:02;101896.50;;;-5.28;100.00
39341;BME280;25059;52.132;21.062;2023-02-28T03:09:52;101886.75;;;-5.35;100.00
39341;BME280;25059;52.132;21.062;2023-02-28T03:12:51;101874.53;;;-5.40;100.00
39341;BME280;25059;52.132;21.062;2023-02-28T03:15:53;101870.09;;;-5.61;100.00
39341;BME280;25059;52.132;21.062;2023-02-28T03:22:10;101860.72;;;-5.60;100.00
39341;BME280;25059;52.132;21.062;2023-02-28T03:30:44;101898.53;;;-5.38;100.00
39341;BME280;25059;52.132;21.062;2023-02-28T03:33:38;101887.25;;;-5.42;100.00
39341;BME280;25059;52.132;21.062;2023-02-28T03:36:28;101900.22;;;-5.39;100.00
39341;BME280;25059;52.132;21.062;2023-02-28T03:39:19;101888.78;;;-5.45;100.00
39341;BME280;25059;52.132;21.062;2023-02-28T03:42:11;101872.81;;;-5.58;100.00
39341;BME280;25059;52.132;21.062;2023-02-28T03:45:04;101911.34;;;-5.38;100.00
39341;BME280;25059;52.132;21.062;2023-02-28T03:51:01;101907.69;;;-5.43;100.00
39341;BME280;25059;52.132;21.062;2023-02-28T03:53:50;101876.09;;;-5.60;100.00
39341;BME280;25059;52.132;21.062;2023-02-28T03:56:39;101914.09;;;-5.51;100.00
39341;BME280;25059;52.132;21.062;2023-02-28T03:59:32;101900.41;;;-5.52;100.00
39341;BME280;25059;52.132;21.062;2023-02-28T04:02:18;101903.63;;;-5.56;100.00
39341;BME280;25059;52.132;21.062;2023-02-28T04:05:04;101916.81;;;-5.48;100.00
39341;BME280;25059;52.132;21.062;2023-02-28T04:07:49;101907.06;;;-5.56;100.00
39341;BME280;25059;52.132;21.062;2023-02-28T04:10:34;101898.25;;;-5.61;100.00
39341;BME280;25059;52.132;21.062;2023-02-28T04:13:18;101877.06;;;-5.74;100.00
39341;BME280;25059;52.132;21.062;2023-02-28T04:16:06;101895.72;;;-5.77;100.00
39341;BME280;25059;52.132;21.062;2023-02-28T04:18:56;101911.56;;;-5.68;100.00
39341;BME280;25059;52.132;21.062;2023-02-28T04:21:50;101907.53;;;-5.63;100.00
39341;BME280;25059;52.132;21.062;2023-02-28T04:24:35;101910.25;;;-5.60;100.00
39341;BME280;25059;52.132;21.062;2023-02-28T04:27:20;101912.91;;;-5.58;100.00
39341;BME280;25059;52.132;21.062;2023-02-28T04:30:05;101886.66;;;-5.70;100.00
39341;BME280;25059;52.132;21.062;2023-02-28T04:32:50;101915.31;;;-5.61;100.00
39341;BME280;25059;52.132;21.062;2023-02-28T04:35:34;101886.28;;;-5.78;100.00
39341;BME280;25059;52.132;21.062;2023-02-28T04:38:19;101910.44;;;-5.73;100.00
39341;BME280;25059;52.132;21.062;2023-02-28T04:41:04;101895.41;;;-5.83;100.00
39341;BME280;25059;52.132;21.062;2023-02-28T04:43:49;101928.91;;;-5.62;100.00
39341;BME280;25059;52.132;21.062;2023-02-28T04:46:34;101922.03;;;-5.63;100.00
39341;BME280;25059;52.132;21.062;2023-02-28T04:49:19;101922.75;;;-5.66;100.00
39341;BME280;25059;52.132;21.062;2023-02-28T04:52:04;101918.34;;;-5.68;100.00
39341;BME280;25059;52.132;21.062;2023-02-28T04:54:48;101887.28;;;-5.92;100.00
39341;BME280;25059;52.132;21.062;2023-02-28T04:57:33;101920.34;;;-5.79;100.00
39341;BME280;25059;52.132;21.062;2023-02-28T05:00:18;101921.47;;;-5.74;100.00
39341;BME280;25059;52.132;21.062;2023-02-28T05:03:03;101917.63;;;-5.82;100.00
39341;BME280;25059;52.132;21.062;2023-02-28T05:05:47;101914.34;;;-5.79;100.00
39341;BME280;25059;52.132;21.062;2023-02-28T05:08:32;101922.75;;;-5.82;100.00
39341;BME280;25059;52.132;21.062;2023-02-28T05:11:19;101931.00;;;-5.71;100.00
39341;BME280;25059;52.132;21.062;2023-02-28T05:14:09;101922.84;;;-5.80;100.00
39341;BME280;25059;52.132;21.062;2023-02-28T05:16:54;101935.41;;;-5.85;100.00
39341;BME280;25059;52.132;21.062;2023-02-28T05:19:39;101934.69;;;-5.82;100.00
39341;BME280;25059;52.132;21.062;2023-02-28T05:22:23;101941.88;;;-5.75;100.00
39341;BME280;25059;52.132;21.062;2023-02-28T05:25:23;101952.38;;;-5.71;100.00
39341;BME280;25059;52.132;21.062;2023-02-28T05:28:08;101958.28;;;-5.72;100.00
39341;BME280;25059;52.132;21.062;2023-02-28T05:30:53;101951.81;;;-5.65;100.00
39341;BME280;25059;52.132;21.062;2023-02-28T05:33:38;101959.41;;;-5.67;100.00
39341;BME280;25059;52.132;21.062;2023-02-28T05:36:23;101947.25;;;-5.71;100.00
39341;BME280;25059;52.132;21.062;2023-02-28T05:39:08;101959.81;;;-5.59;100.00
39341;BME280;25059;52.132;21.062;2023-02-28T05:41:57;101956.28;;;-5.61;100.00
39341;BME280;25059;52.132;21.062;2023-02-28T05:44:41;101968.22;;;-5.62;100.00
39341;BME280;25059;52.132;21.062;2023-02-28T05:47:26;101975.50;;;-5.53;100.00
39341;BME280;25059;52.132;21.062;2023-02-28T05:50:10;101974.38;;;-5.42;100.00
39341;BME280;25059;52.132;21.062;2023-02-28T05:52:55;101978.63;;;-5.42;100.00
39341;BME280;25059;52.132;21.062;2023-02-28T05:55:40;101976.38;;;-5.36;100.00
39341;BME280;25059;52.132;21.062;2023-02-28T05:58:25;101962.88;;;-5.16;100.00
39341;BME280;25059;52.132;21.062;2023-02-28T06:01:34;101981.25;;;-4.91;100.00
39341;BME280;25059;52.132;21.062;2023-02-28T06:04:20;101971.75;;;-4.75;100.00
39341;BME280;25059;52.132;21.062;2023-02-28T06:07:05;101976.66;;;-4.62;100.00
39341;BME280;25059;52.132;21.062;2023-02-28T06:09:50;101980.19;;;-4.42;100.00
39341;BME280;25059;52.132;21.062;2023-02-28T06:12:34;101982.38;;;-4.32;100.00
39341;BME280;25059;52.132;21.062;2023-02-28T06:15:19;101967.06;;;-4.31;100.00
39341;BME280;25059;52.132;21.062;2023-02-28T06:18:05;101972.97;;;-4.14;100.00
39341;BME280;25059;52.132;21.062;2023-02-28T06:20:53;101978.03;;;-3.98;100.00
39341;BME280;25059;52.132;21.062;2023-02-28T06:23:38;101983.94;;;-3.81;100.00
39341;BME280;25059;52.132;21.062;2023-02-28T06:26:24;101965.59;;;-3.88;100.00
39341;BME280;25059;52.132;21.062;2023-02-28T06:29:08;101968.94;;;-3.72;100.00
39341;BME280;25059;52.132;21.062;2023-02-28T06:31:53;101962.22;;;-3.68;100.00
39341;BME280;25059;52.132;21.062;2023-02-28T06:34:38;101983.94;;;-3.42;100.00
39341;BME280;25059;52.132;21.062;2023-02-28T06:37:22;101954.59;;;-3.47;100.00
39341;BME280;25059;52.132;21.062;2023-02-28T06:40:10;101979.81;;;-3.19;100.00
39341;BME280;25059;52.132;21.062;2023-02-28T06:42:55;101972.53;;;-3.09;100.00
39341;BME280;25059;52.132;21.062;2023-02-28T06:45:42;101959.94;;;-3.03;100.00
39341;BME280;25059;52.132;21.062;2023-02-28T06:48:28;101956.56;;;-2.81;100.00
39341;BME280;25059;52.132;21.062;2023-02-28T06:51:15;101929.06;;;-2.82;100.00
39341;BME280;25059;52.132;21.062;2023-02-28T06:54:01;101940.88;;;-2.66;100.00
39341;BME280;25059;52.132;21.062;2023-02-28T06:56:45;101965.53;;;-2.50;100.00
39341;BME280;25059;52.132;21.062;2023-02-28T06:59:31;101950.56;;;-2.38;100.00
39341;BME280;25059;52.132;21.062;2023-02-28T07:02:18;101951.22;;;-2.21;100.00
39341;BME280;25059;52.132;21.062;2023-02-28T07:05:06;101949.88;;;-2.12;100.00
39341;BME280;25059;52.132;21.062;2023-02-28T07:07:51;101926.16;;;-2.03;100.00
39341;BME280;25059;52.132;21.062;2023-02-28T07:10:44;101946.03;;;-1.77;100.00
39341;BME280;25059;52.132;21.062;2023-02-28T07:13:32;101943.78;;;-1.68;100.00
39341;BME280;25059;52.132;21.062;2023-02-28T07:16:20;101916.03;;;-1.75;100.00
39341;BME280;25059;52.132;21.062;2023-02-28T07:19:06;101925.13;;;-1.60;100.00
39341;BME280;25059;52.132;21.062;2023-02-28T07:22:08;101928.16;;;-1.48;100.00
39341;BME280;25059;52.132;21.062;2023-02-28T07:24:54;101919.59;;;-1.47;100.00
39341;BME280;25059;52.132;21.062;2023-02-28T07:27:39;101952.28;;;-1.22;100.00
39341;BME280;25059;52.132;21.062;2023-02-28T07:30:28;101919.88;;;-1.40;100.00
39341;BME280;25059;52.132;21.062;2023-02-28T07:33:18;101923.94;;;-1.21;100.00
39341;BME280;25059;52.132;21.062;2023-02-28T07:36:08;101939.19;;;-1.03;100.00
39341;BME280;25059;52.132;21.062;2023-02-28T07:38:55;101949.84;;;-0.92;100.00
39341;BME280;25059;52.132;21.062;2023-02-28T07:41:43;101943.97;;;-0.88;100.00
39341;BME280;25059;52.132;21.062;2023-02-28T07:44:34;101931.16;;;-0.85;100.00
39341;BME280;25059;52.132;21.062;2023-02-28T07:47:19;101941.53;;;-0.84;100.00
39341;BME280;25059;52.132;21.062;2023-02-28T07:50:09;101935.34;;;-0.89;100.00
39341;BME280;25059;52.132;21.062;2023-02-28T07:52:58;101950.38;;;-0.77;100.00
39341;BME280;25059;52.132;21.062;2023-02-28T07:55:50;101951.34;;;-0.74;100.00
39341;BME280;25059;52.132;21.062;2023-02-28T07:58:34;101927.66;;;-0.87;100.00
39341;BME280;25059;52.132;21.062;2023-02-28T08:01:28;101948.91;;;-0.69;100.00
39341;BME280;25059;52.132;21.062;2023-02-28T08:04:14;101933.53;;;-0.66;100.00
39341;BME280;25059;52.132;21.062;2023-02-28T08:07:07;101933.03;;;-0.54;100.00
39341;BME280;25059;52.132;21.062;2023-02-28T08:11:00;101937.41;;;-0.52;100.00
39341;BME280;25059;52.132;21.062;2023-02-28T08:14:21;101907.84;;;-0.61;100.00
39341;BME280;25059;52.132;21.062;2023-02-28T08:17:46;101938.25;;;-0.53;100.00
39341;BME280;25059;52.132;21.062;2023-02-28T08:20:41;101948.03;;;-0.43;100.00
39341;BME280;25059;52.132;21.062;2023-02-28T08:23:38;101941.94;;;-0.45;100.00
39341;BME280;25059;52.132;21.062;2023-02-28T08:26:41;101943.94;;;-0.36;100.00
39341;BME280;25059;52.132;21.062;2023-02-28T08:29:39;101935.47;;;-0.32;100.00
39341;BME280;25059;52.132;21.062;2023-02-28T08:32:25;101884.09;;;-0.50;100.00
39341;BME280;25059;52.132;21.062;2023-02-28T08:35:14;101937.75;;;-0.13;100.00
39341;BME280;25059;52.132;21.062;2023-02-28T08:38:22;101942.00;;;-0.15;100.00
39341;BME280;25059;52.132;21.062;2023-02-28T08:41:13;101941.88;;;-0.19;100.00
39341;BME280;25059;52.132;21.062;2023-02-28T08:44:04;101902.47;;;-0.41;100.00
39341;BME280;25059;52.132;21.062;2023-02-28T08:46:49;101931.69;;;-0.15;100.00
39341;BME280;25059;52.132;21.062;2023-02-28T08:49:36;101937.63;;;0.11;100.00
39341;BME280;25059;52.132;21.062;2023-02-28T08:52:22;101942.41;;;0.27;100.00
39341;BME280;25059;52.132;21.062;2023-02-28T08:56:00;101945.28;;;0.38;96.93
39341;BME280;25059;52.132;21.062;2023-02-28T09:11:51;101949.31;;;0.91;89.55
39341;BME280;25059;52.132;21.062;2023-02-28T09:14:51;101939.38;;;0.74;86.63
39341;BME280;25059;52.132;21.062;2023-02-28T09:17:43;101940.25;;;0.74;88.13
39341;BME280;25059;52.132;21.062;2023-02-28T09:24:28;101911.94;;;0.80;87.32
39341;BME280;25059;52.132;21.062;2023-02-28T09:27:22;101916.44;;;0.87;84.22
39341;BME280;25059;52.132;21.062;2023-02-28T09:30:30;101913.84;;;0.87;82.29
39341;BME280;25059;52.132;21.062;2023-02-28T09:33:18;101907.59;;;0.79;79.89
39341;BME280;25059;52.132;21.062;2023-02-28T09:36:14;101951.13;;;0.94;79.61
39341;BME280;25059;52.132;21.062;2023-02-28T09:39:02;101937.50;;;1.01;80.17
39341;BME280;25059;52.132;21.062;2023-02-28T09:45:20;101882.25;;;1.01;80.44
39341;BME280;25059;52.132;21.062;2023-02-28T09:48:17;101953.09;;;1.75;79.58
39341;BME280;25059;52.132;21.062;2023-02-28T10:04:53;101895.34;;;1.07;70.43
39341;BME280;25059;52.132;21.062;2023-02-28T10:11:40;101844.69;;;4.18;60.00
39341;BME280;25059;52.132;21.062;2023-02-28T10:14:29;101883.13;;;5.37;56.42
39341;BME280;25059;52.132;21.062;2023-02-28T10:17:21;101932.44;;;6.37;53.25
39341;BME280;25059;52.132;21.062;2023-02-28T10:20:28;101923.00;;;7.48;48.15
39341;BME280;25059;52.132;21.062;2023-02-28T10:26:13;101931.69;;;7.68;46.23
39341;BME280;25059;52.132;21.062;2023-02-28T10:29:03;101908.94;;;7.96;44.92
39341;BME280;25059;52.132;21.062;2023-02-28T10:32:12;101913.66;;;9.01;43.65
39341;BME280;25059;52.132;21.062;2023-02-28T10:35:20;101907.19;;;9.42;42.44
39341;BME280;25059;52.132;21.062;2023-02-28T10:38:32;101907.72;;;8.73;41.90
39341;BME280;25059;52.132;21.062;2023-02-28T10:41:36;101915.38;;;9.05;41.38
39341;BME280;25059;52.132;21.062;2023-02-28T10:49:29;101874.84;;;12.25;37.23
39341;BME280;25059;52.132;21.062;2023-02-28T10:57:20;101894.13;;;13.05;33.01
39341;BME280;25059;52.132;21.062;2023-02-28T11:00:19;101885.31;;;13.06;33.00
39341;BME280;25059;52.132;21.062;2023-02-28T11:10:21;101881.69;;;14.68;31.14
39341;BME280;25059;52.132;21.062;2023-02-28T11:13:26;101892.31;;;15.47;29.52
39341;BME280;25059;52.132;21.062;2023-02-28T11:16:14;101878.19;;;14.38;30.74
39341;BME280;25059;52.132;21.062;2023-02-28T11:19:00;101876.19;;;13.85;31.06
39341;BME280;25059;52.132;21.062;2023-02-28T11:21:54;101879.28;;;14.31;29.77
39341;BME280;25059;52.132;21.062;2023-02-28T11:24:44;101875.88;;;14.57;30.97
39341;BME280;25059;52.132;21.062;2023-02-28T11:30:32;101860.50;;;14.96;28.63
39341;BME280;25059;52.132;21.062;2023-02-28T11:33:50;101868.56;;;15.44;28.21
39341;BME280;25059;52.132;21.062;2023-02-28T11:36:35;101846.44;;;16.63;27.97
39341;BME280;25059;52.132;21.062;2023-02-28T11:39:20;101853.31;;;15.26;28.18
39341;BME280;25059;52.132;21.062;2023-02-28T11:52:00;101826.38;;;16.11;27.42
39341;BME280;25059;52.132;21.062;2023-02-28T12:06:18;101807.66;;;16.81;26.09
39341;BME280;25059;52.132;21.062;2023-02-28T12:09:33;101809.06;;;15.52;27.30
39341;BME280;25059;52.132;21.062;2023-02-28T12:15:47;101815.16;;;15.05;28.38
39341;BME280;25059;52.132;21.062;2023-02-28T12:28:51;101771.41;;;17.80;25.94
39341;BME280;25059;52.132;21.062;2023-02-28T12:31:46;101792.19;;;17.52;25.16
39341;BME280;25059;52.132;21.062;2023-02-28T12:34:47;101797.56;;;18.46;24.75
39341;BME280;25059;52.132;21.062;2023-02-28T12:38:08;101769.78;;;17.57;25.08
39341;BME280;25059;52.132;21.062;2023-02-28T12:45:59;101756.88;;;19.80;22.24
39341;BME280;25059;52.132;21.062;2023-02-28T12:48:54;101785.84;;;17.15;25.13
39341;BME280;25059;52.132;21.062;2023-02-28T12:51:48;101783.16;;;16.95;25.08
39341;BME280;25059;52.132;21.062;2023-02-28T12:54:49;101766.47;;;17.72;24.69
39341;BME280;25059;52.132;21.062;2023-02-28T13:00:32;101767.38;;;20.62;21.53
39341;BME280;25059;52.132;21.062;2023-02-28T13:03:27;101766.75;;;21.61;21.37
39341;BME280;25059;52.132;21.062;2023-02-28T13:09:11;101745.03;;;24.62;19.03
39341;BME280;25059;52.132;21.062;2023-02-28T13:12:15;101732.72;;;26.61;17.34
39341;BME280;25059;52.132;21.062;2023-02-28T13:15:24;101737.84;;;24.02;17.86
39341;BME280;25059;52.132;21.062;2023-02-28T13:18:39;101719.69;;;24.54;17.52
39341;BME280;25059;52.132;21.062;2023-02-28T13:21:47;101754.59;;;22.79;18.50
39341;BME280;25059;52.132;21.062;2023-02-28T13:24:52;101757.78;;;23.11;18.54
39341;BME280;25059;52.132;21.062;2023-02-28T13:27:55;101711.81;;;26.74;16.10
39341;BME280;25059;52.132;21.062;2023-02-28T13:35:12;101743.22;;;25.66;16.69
39341;BME280;25059;52.132;21.062;2023-02-28T13:38:12;101742.97;;;25.81;16.01
39341;BME280;25059;52.132;21.062;2023-02-28T13:44:29;101744.50;;;25.27;15.97
39341;BME280;25059;52.132;21.062;2023-02-28T13:47:21;101735.53;;;24.22;16.75
39341;BME280;25059;52.132;21.062;2023-02-28T13:50:31;101720.84;;;26.20;15.18
39341;BME280;25059;52.132;21.062;2023-02-28T13:53:34;101712.13;;;30.38;13.61
39341;BME280;25059;52.132;21.062;2023-02-28T14:06:26;101699.34;;;27.55;14.20
39341;BME280;25059;52.132;21.062;2023-02-28T14:18:49;101698.53;;;28.14;14.40
39341;BME280;25059;52.132;21.062;2023-02-28T14:31:34;101690.63;;;27.72;14.25
39341;BME280;25059;52.132;21.062;2023-02-28T14:34:43;101678.97;;;27.81;14.60
39341;BME280;25059;52.132;21.062;2023-02-28T14:37:37;101678.78;;;25.07;15.74
39341;BME280;25059;52.132;21.062;2023-02-28T14:40:34;101708.88;;;23.95;16.49
39341;BME280;25059;52.132;21.062;2023-02-28T14:43:25;101683.59;;;22.05;17.88
39341;BME280;25059;52.132;21.062;2023-02-28T14:46:14;101694.34;;;20.16;19.81
39341;BME280;25059;52.132;21.062;2023-02-28T14:49:05;101689.31;;;20.41;19.86
39341;BME280;25059;52.132;21.062;2023-02-28T14:52:17;101696.28;;;21.18;19.21
39341;BME280;25059;52.132;21.062;2023-02-28T14:55:12;101687.38;;;21.74;18.72
39341;BME280;25059;52.132;21.062;2023-02-28T14:58:00;101685.13;;;18.92;20.78
39341;BME280;25059;52.132;21.062;2023-02-28T15:00:51;101688.66;;;19.75;20.70
39341;BME280;25059;52.132;21.062;2023-02-28T15:03:39;101695.84;;;18.91;21.13
39341;BME280;25059;52.132;21.062;2023-02-28T15:06:25;101687.91;;;18.55;21.55
39341;BME280;25059;52.132;21.062;2023-02-28T15:09:15;101686.47;;;17.38;22.81
39341;BME280;25059;52.132;21.062;2023-02-28T15:12:04;101700.66;;;15.92;24.44
39341;BME280;25059;52.132;21.062;2023-02-28T15:14:50;101695.28;;;16.99;23.21
39341;BME280;25059;52.132;21.062;2023-02-28T15:17:35;101693.13;;;16.25;23.66
39341;BME280;25059;52.132;21.062;2023-02-28T15:20:20;101684.13;;;16.07;23.88
39341;BME280;25059;52.132;21.062;2023-02-28T15:23:06;101693.97;;;15.35;24.61
39341;BME280;25059;52.132;21.062;2023-02-28T15:25:52;101707.69;;;15.23;24.55
39341;BME280;25059;52.132;21.062;2023-02-28T15:28:38;101708.78;;;14.92;25.95
39341;BME280;25059;52.132;21.062;2023-02-28T15:31:29;101708.22;;;13.44;27.24
39341;BME280;25059;52.132;21.062;2023-02-28T15:38:25;101697.84;;;12.39;28.88
39341;BME280;25059;52.132;21.062;2023-02-28T15:41:27;101711.66;;;10.85;31.08
39341;BME280;25059;52.132;21.062;2023-02-28T15:47:02;101709.63;;;8.41;35.87
39341;BME280;25059;52.132;21.062;2023-02-28T15:52:42;101723.94;;;5.13;44.15
39341;BME280;25059;52.132;21.062;2023-02-28T15:55:28;101707.66;;;4.23;46.55
39341;BME280;25059;52.132;21.062;2023-02-28T15:58:22;101724.50;;;3.72;49.68
39341;BME280;25059;52.132;21.062;2023-02-28T16:01:17;101714.50;;;3.33;52.34
39341;BME280;25059;52.132;21.062;2023-02-28T16:04:11;101733.47;;;3.24;54.13
39341;BME280;25059;52.132;21.062;2023-02-28T16:09:42;101728.56;;;2.30;61.83
39341;BME280;25059;52.132;21.062;2023-02-28T16:12:29;101733.44;;;2.11;65.61
39341;BME280;25059;52.132;21.062;2023-02-28T16:15:24;101725.88;;;1.77;70.04
39341;BME280;25059;52.132;21.062;2023-02-28T16:18:11;101740.31;;;1.64;73.41
39341;BME280;25059;52.132;21.062;2023-02-28T16:20:56;101708.78;;;1.43;77.15
39341;BME280;25059;52.132;21.062;2023-02-28T16:23:41;101716.09;;;1.20;80.72
39341;BME280;25059;52.132;21.062;2023-02-28T16:26:25;101739.38;;;1.18;83.86
39341;BME280;25059;52.132;21.062;2023-02-28T16:29:19;101745.06;;;1.02;87.70
39341;BME280;25059;52.132;21.062;2023-02-28T16:32:06;101730.69;;;0.77;89.92
39341;BME280;25059;52.132;21.062;2023-02-28T16:34:52;101741.94;;;0.79;90.66
39341;BME280;25059;52.132;21.062;2023-02-28T16:37:36;101726.06;;;0.64;92.78
39341;BME280;25059;52.132;21.062;2023-02-28T16:40:23;101747.84;;;0.74;93.91
39341;BME280;25059;52.132;21.062;2023-02-28T16:43:15;101726.97;;;0.66;94.29
39341;BME280;25059;52.132;21.062;2023-02-28T16:46:01;101740.44;;;0.53;97.31
39341;BME280;25059;52.132;21.062;2023-02-28T16:48:47;101754.91;;;0.45;100.00
39341;BME280;25059;52.132;21.062;2023-02-28T16:51:37;101742.81;;;0.44;100.00
39341;BME280;25059;52.132;21.062;2023-02-28T16:54:21;101726.06;;;0.29;100.00
39341;BME280;25059;52.132;21.062;2023-02-28T16:57:17;101747.44;;;0.22;100.00
39341;BME280;25059;52.132;21.062;2023-02-28T17:00:05;101743.97;;;0.22;100.00
39341;BME280;25059;52.132;21.062;2023-02-28T17:02:52;101728.38;;;-0.14;100.00
39341;BME280;25059;52.132;21.062;2023-02-28T17:05:38;101742.78;;;-0.24;100.00
39341;BME280;25059;52.132;21.062;2023-02-28T17:08:23;101743.66;;;-0.23;100.00
39341;BME280;25059;52.132;21.062;2023-02-28T17:11:08;101758.34;;;-0.21;100.00
39341;BME280;25059;52.132;21.062;2023-02-28T17:13:53;101747.56;;;-0.38;100.00
39341;BME280;25059;52.132;21.062;2023-02-28T17:16:39;101769.47;;;-0.23;100.00
39341;BME280;25059;52.132;21.062;2023-02-28T17:19:39;101775.84;;;-0.42;100.00
39341;BME280;25059;52.132;21.062;2023-02-28T17:22:27;101782.50;;;-0.50;100.00
39341;BME280;25059;52.132;21.062;2023-02-28T17:25:12;101771.75;;;-0.64;100.00
39341;BME280;25059;52.132;21.062;2023-02-28T17:27:57;101777.47;;;-0.46;100.00
39341;BME280;25059;52.132;21.062;2023-02-28T17:30:41;101750.31;;;-0.61;100.00
39341;BME280;25059;52.132;21.062;2023-02-28T17:33:31;101750.63;;;-0.51;100.00
39341;BME280;25059;52.132;21.062;2023-02-28T17:36:21;101771.59;;;-0.40;100.00
39341;BME280;25059;52.132;21.062;2023-02-28T17:39:09;101769.44;;;-0.55;100.00
39341;BME280;25059;52.132;21.062;2023-02-28T17:42:13;101779.88;;;-0.52;100.00
39341;BME280;25059;52.132;21.062;2023-02-28T17:44:58;101755.69;;;-0.54;100.00